Historique des stations

Station météo de Etrechet

Altitude de la station : 156 m







Données météorologiques pour le 14/08/2022
Date
Heure
Températures Humidité Point de rosée Vitesse
du vent
Direction Rafales Windchill Pression Pluviométrie
Cumul
Date
Heure
Températures Humidité Point de rosée Vitesse
du vent
Direction Rafales Windchill Pression Pluviométrie
Cumul
14/08/2022 04:3021.7 °C78 %17.8 °C31 km/hO42 km/h18.9 1009 hPa-
14/08/2022 04:2921.8 °C78 %17.8 °C21 km/hO68 km/h20.0 1009 hPa-
14/08/2022 04:1422.2 °C76 %17.8 °C21 km/hSO68 km/h20.6 1009 hPa-
14/08/2022 04:0022.4 °C75 %17.8 °C19 km/hOSO58 km/h21.1 1009 hPa-
14/08/2022 03:5922.4 °C75 %17.8 °C14 km/hO68 km/h21.1 1008 hPa-
14/08/2022 03:4522.6 °C76 %18.3 °C16 km/hO48 km/h21.7 1009 hPa-
14/08/2022 03:4422.6 °C75 %17.8 °C16 km/hOSO68 km/h21.7 1009 hPa-
14/08/2022 03:3022.9 °C74 %18.3 °C35 km/hO55 km/h19.4 1008 hPa-
14/08/2022 03:2923.0 °C74 %18.3 °C26 km/hO58 km/h20.6 1008 hPa-
14/08/2022 03:1523.7 °C70 %17.8 °C43 km/hO58 km/h20.6 1008 hPa-
14/08/2022 03:1423.8 °C70 %17.8 °C45 km/hOSO58 km/h20.6 1008 hPa-
14/08/2022 03:0023.7 °C50 %12.8 °C21 km/hOSO39 km/h22.2 1007 hPa-
14/08/2022 02:5923.7 °C49 %12.2 °C23 km/hSO39 km/h22.2 1007 hPa-
14/08/2022 02:4523.4 °C43 %10.0 °C10 km/hSSO21 km/h23.3 1006 hPa-
14/08/2022 02:4423.4 °C43 %10.0 °C13 km/hSSO26 km/h22.8 1006 hPa-
14/08/2022 02:3123.8 °C41 %10.0 °C3 km/hESE10 km/h23.9 1006 hPa-
14/08/2022 02:2923.8 °C41 %10.0 °C3 km/hESE13 km/h23.9 1006 hPa-
14/08/2022 02:1523.8 °C41 %9.4 °C10 km/hE13 km/h23.9 1006 hPa-
14/08/2022 02:1423.8 °C41 %10.0 °C11 km/hE13 km/h23.3 1006 hPa-
14/08/2022 02:0123.9 °C41 %10.0 °C11 km/hE13 km/h23.3 1006 hPa-
14/08/2022 01:5923.9 °C41 %10.0 °C6 km/hE13 km/h23.9 1006 hPa-
14/08/2022 01:4623.9 °C41 %10.0 °C11 km/hESE11 km/h23.3 1006 hPa-
14/08/2022 01:4423.9 °C41 %10.0 °C10 km/hE13 km/h23.9 1006 hPa-
14/08/2022 01:3123.8 °C41 %9.4 °C11 km/hE13 km/h23.3 1006 hPa-
14/08/2022 01:2923.8 °C41 %9.4 °C10 km/hE11 km/h23.9 1006 hPa-
14/08/2022 01:1523.9 °C41 %10.0 °C5 km/hE11 km/h23.9 1007 hPa-
14/08/2022 01:0124.2 °C41 %10.0 °C3 km/hE10 km/h24.4 1007 hPa-
14/08/2022 01:0024.2 °C41 %10.0 °C3 km/hE11 km/h24.4 1007 hPa-
14/08/2022 00:4624.5 °C40 %10.0 °C3 km/hE6 km/h24.4 1007 hPa-
14/08/2022 00:4524.6 °C40 %10.0 °C3 km/hE11 km/h24.4 1007 hPa-
14/08/2022 00:3124.8 °C39 %10.0 °C5 km/hE6 km/h25.0 1007 hPa-
14/08/2022 00:3024.8 °C39 %10.0 °C5 km/hE11 km/h25.0 1007 hPa-
14/08/2022 00:1724.9 °C38 %9.4 °C6 km/hE11 km/h25.0 1007 hPa-
14/08/2022 00:1525.0 °C38 %9.4 °C5 km/hE11 km/h25.0 1007 hPa-
14/08/2022 00:0025.2 °C38 %10.0 °C10 km/hE13 km/h25.0 1007 hPa-


Minima :

Température : 21.7 °C
Humidité : 38 %
Point de rosée : 9.4 °C
Vent moyen : 3 km/h
Windchill : 18.9
Pression atm. : 1006 hPa
Maxima :

Température : 25.2 °C
Humidité : 78 %
Point de rosée : 18.3 °C
Vent moyen : 45 km/h
Windchill : 25.0
Pression atm. : 1009 hPa
Rafales max : 68 km/h
Cumul de pluie sur 24H : 0 mm

Etrechet est une commune du département Indre (36).
La station météorologique du réseau de l'association la plus proche de Etrechet est celle de Saint-Maur



Icône Facebook Association Météo Centre Icône Twitter Association Météo Centre Icône Chaîne Youtube Association Météo Centre Icône contact Association Météo Centre Icône Insta Association Météo Centre